sensor_id;sensor_type;location;lat;lon;timestamp;pressure;altitude;pressure_sealevel;temperature;humidity
80945;BME280;70400;50.934;11.590;2023-08-08T00:00:49;99949.69;;;12.52;71.25
80945;BME280;70400;50.934;11.590;2023-08-08T00:01:40;99954.13;;;12.51;72.46
80945;BME280;70400;50.934;11.590;2023-08-08T00:02:35;99953.91;;;12.71;71.54
80945;BME280;70400;50.934;11.590;2023-08-08T00:03:26;99953.41;;;12.67;69.68
80945;BME280;70400;50.934;11.590;2023-08-08T00:04:17;99953.22;;;12.69;71.05
80945;BME280;70400;50.934;11.590;2023-08-08T00:05:08;99952.03;;;12.63;70.32
80945;BME280;70400;50.934;11.590;2023-08-08T00:05:59;99956.69;;;12.69;70.37
80945;BME280;70400;50.934;11.590;2023-08-08T00:06:50;99944.59;;;12.67;69.55
80945;BME280;70400;50.934;11.590;2023-08-08T00:07:40;99953.06;;;12.70;72.21
80945;BME280;70400;50.934;11.590;2023-08-08T00:08:31;99953.34;;;12.59;70.47
80945;BME280;70400;50.934;11.590;2023-08-08T00:09:22;99954.00;;;12.61;70.95
80945;BME280;70400;50.934;11.590;2023-08-08T00:10:13;99956.88;;;12.68;71.46
80945;BME280;70400;50.934;11.590;2023-08-08T00:11:04;99954.31;;;12.58;70.28
80945;BME280;70400;50.934;11.590;2023-08-08T00:11:55;99946.34;;;12.50;70.78
80945;BME280;70400;50.934;11.590;2023-08-08T00:12:48;99947.28;;;12.41;70.26
80945;BME280;70400;50.934;11.590;2023-08-08T00:13:40;99948.81;;;12.51;72.18
80945;BME280;70400;50.934;11.590;2023-08-08T00:14:31;99947.63;;;12.46;71.20
80945;BME280;70400;50.934;11.590;2023-08-08T00:15:22;99948.09;;;12.41;71.46
80945;BME280;70400;50.934;11.590;2023-08-08T00:16:13;99955.75;;;12.44;70.95
80945;BME280;70400;50.934;11.590;2023-08-08T00:17:04;99948.63;;;12.45;70.95
80945;BME280;70400;50.934;11.590;2023-08-08T00:17:55;99947.22;;;12.32;71.41
80945;BME280;70400;50.934;11.590;2023-08-08T00:18:46;99950.34;;;12.28;71.66
80945;BME280;70400;50.934;11.590;2023-08-08T00:19:37;99958.84;;;12.40;72.71
80945;BME280;70400;50.934;11.590;2023-08-08T00:20:28;99953.03;;;12.36;71.59
80945;BME280;70400;50.934;11.590;2023-08-08T00:21:22;99955.56;;;12.46;72.01
80945;BME280;70400;50.934;11.590;2023-08-08T00:22:13;99959.91;;;12.47;70.98
80945;BME280;70400;50.934;11.590;2023-08-08T00:23:03;99955.44;;;12.47;70.98
80945;BME280;70400;50.934;11.590;2023-08-08T00:23:55;99956.19;;;12.66;71.61
80945;BME280;70400;50.934;11.590;2023-08-08T00:24:45;99954.00;;;12.61;71.11
80945;BME280;70400;50.934;11.590;2023-08-08T00:25:36;99949.00;;;12.50;70.62
80945;BME280;70400;50.934;11.590;2023-08-08T00:26:28;99954.59;;;12.47;69.84
80945;BME280;70400;50.934;11.590;2023-08-08T00:27:19;99948.63;;;12.45;69.79
80945;BME280;70400;50.934;11.590;2023-08-08T00:28:10;99955.53;;;12.37;69.82
80945;BME280;70400;50.934;11.590;2023-08-08T00:29:01;99948.22;;;12.31;70.45
80945;BME280;70400;50.934;11.590;2023-08-08T00:29:52;99950.03;;;12.31;70.30
80945;BME280;70400;50.934;11.590;2023-08-08T00:30:44;99956.00;;;12.33;71.01
80945;BME280;70400;50.934;11.590;2023-08-08T00:31:35;99958.50;;;12.34;70.98
80945;BME280;70400;50.934;11.590;2023-08-08T00:32:26;99955.22;;;12.41;71.75
80945;BME280;70400;50.934;11.590;2023-08-08T00:33:16;99946.81;;;12.45;70.71
80945;BME280;70400;50.934;11.590;2023-08-08T00:34:07;99956.72;;;12.43;70.30
80945;BME280;70400;50.934;11.590;2023-08-08T00:34:58;99961.75;;;12.54;70.66
80945;BME280;70400;50.934;11.590;2023-08-08T00:35:49;99960.53;;;12.49;70.50
80945;BME280;70400;50.934;11.590;2023-08-08T00:36:40;99957.53;;;12.44;70.24
80945;BME280;70400;50.934;11.590;2023-08-08T00:37:31;99957.66;;;12.60;70.24
80945;BME280;70400;50.934;11.590;2023-08-08T00:38:22;99960.91;;;12.54;70.07
80945;BME280;70400;50.934;11.590;2023-08-08T00:39:13;99961.53;;;12.48;70.35
80945;BME280;70400;50.934;11.590;2023-08-08T00:40:05;99959.09;;;12.28;70.28
80945;BME280;70400;50.934;11.590;2023-08-08T00:40:55;99956.53;;;12.19;70.75
80945;BME280;70400;50.934;11.590;2023-08-08T00:41:46;99958.03;;;12.21;70.95
80945;BME280;70400;50.934;11.590;2023-08-08T00:42:38;99958.53;;;12.16;71.89
80945;BME280;70400;50.934;11.590;2023-08-08T00:43:29;99948.84;;;12.25;71.69
80945;BME280;70400;50.934;11.590;2023-08-08T00:44:20;99954.66;;;12.29;71.90
80945;BME280;70400;50.934;11.590;2023-08-08T00:45:11;99940.94;;;12.33;70.88
80945;BME280;70400;50.934;11.590;2023-08-08T00:46:01;99946.41;;;12.32;70.79
80945;BME280;70400;50.934;11.590;2023-08-08T00:46:52;99942.97;;;12.40;70.40
80945;BME280;70400;50.934;11.590;2023-08-08T00:47:43;99942.25;;;12.29;70.78
80945;BME280;70400;50.934;11.590;2023-08-08T00:48:36;99943.31;;;12.36;71.81
80945;BME280;70400;50.934;11.590;2023-08-08T00:49:27;99941.66;;;12.44;71.43
80945;BME280;70400;50.934;11.590;2023-08-08T00:50:18;99940.81;;;12.35;70.33
80945;BME280;70400;50.934;11.590;2023-08-08T00:51:09;99931.03;;;12.35;70.75
80945;BME280;70400;50.934;11.590;2023-08-08T00:52:00;99936.19;;;12.37;70.53
80945;BME280;70400;50.934;11.590;2023-08-08T00:52:51;99941.03;;;12.42;71.21
80945;BME280;70400;50.934;11.590;2023-08-08T00:53:43;99939.66;;;12.37;71.02
80945;BME280;70400;50.934;11.590;2023-08-08T00:54:34;99943.38;;;12.53;71.84
80945;BME280;70400;50.934;11.590;2023-08-08T00:55:26;99939.28;;;12.58;71.58
80945;BME280;70400;50.934;11.590;2023-08-08T00:56:17;99936.81;;;12.57;71.07
80945;BME280;70400;50.934;11.590;2023-08-08T00:57:08;99935.66;;;12.59;72.29
80945;BME280;70400;50.934;11.590;2023-08-08T00:57:59;99934.44;;;12.54;70.31
80945;BME280;70400;50.934;11.590;2023-08-08T00:58:50;99935.81;;;12.58;71.04
80945;BME280;70400;50.934;11.590;2023-08-08T00:59:41;99935.25;;;12.46;69.99
80945;BME280;70400;50.934;11.590;2023-08-08T01:00:32;99930.25;;;12.43;70.02
80945;BME280;70400;50.934;11.590;2023-08-08T01:01:22;99948.69;;;12.53;69.73
80945;BME280;70400;50.934;11.590;2023-08-08T01:02:14;99933.94;;;12.50;70.53
80945;BME280;70400;50.934;11.590;2023-08-08T01:03:05;99944.38;;;12.52;70.19
80945;BME280;70400;50.934;11.590;2023-08-08T01:03:56;99941.38;;;12.47;71.97
80945;BME280;70400;50.934;11.590;2023-08-08T01:04:49;99938.06;;;12.45;71.70
80945;BME280;70400;50.934;11.590;2023-08-08T01:05:50;99937.69;;;12.40;71.62
80945;BME280;70400;50.934;11.590;2023-08-08T01:08:04;99938.66;;;12.38;70.78
80945;BME280;70400;50.934;11.590;2023-08-08T01:08:59;99928.72;;;12.32;70.53
80945;BME280;70400;50.934;11.590;2023-08-08T01:10:02;99936.34;;;12.35;70.85
80945;BME280;70400;50.934;11.590;2023-08-08T01:10:58;99941.44;;;12.29;70.65
80945;BME280;70400;50.934;11.590;2023-08-08T01:11:51;99936.91;;;12.21;70.82
80945;BME280;70400;50.934;11.590;2023-08-08T01:12:50;99940.22;;;12.23;71.09
80945;BME280;70400;50.934;11.590;2023-08-08T01:13:43;99938.94;;;12.27;72.60
80945;BME280;70400;50.934;11.590;2023-08-08T01:14:35;99931.00;;;12.27;71.77
80945;BME280;70400;50.934;11.590;2023-08-08T01:15:27;99941.94;;;12.32;72.19
80945;BME280;70400;50.934;11.590;2023-08-08T01:16:20;99934.06;;;12.41;71.74
80945;BME280;70400;50.934;11.590;2023-08-08T01:17:12;99932.91;;;12.43;70.26
80945;BME280;70400;50.934;11.590;2023-08-08T01:18:04;99935.38;;;12.36;70.53
80945;BME280;70400;50.934;11.590;2023-08-08T01:18:56;99947.00;;;12.26;71.13
80945;BME280;70400;50.934;11.590;2023-08-08T01:19:47;99940.84;;;12.17;71.48
80945;BME280;70400;50.934;11.590;2023-08-08T01:20:39;99945.50;;;12.23;72.89
80945;BME280;70400;50.934;11.590;2023-08-08T01:21:35;99942.50;;;12.18;71.43
80945;BME280;70400;50.934;11.590;2023-08-08T01:23:45;99942.50;;;12.18;71.37
80945;BME280;70400;50.934;11.590;2023-08-08T01:24:37;99936.59;;;12.24;73.39
80945;BME280;70400;50.934;11.590;2023-08-08T01:25:30;99944.47;;;12.16;72.03
80945;BME280;70400;50.934;11.590;2023-08-08T01:26:22;99942.19;;;12.21;73.71
80945;BME280;70400;50.934;11.590;2023-08-08T01:27:13;99935.84;;;12.32;73.18
80945;BME280;70400;50.934;11.590;2023-08-08T01:28:04;99939.97;;;12.34;72.60
80945;BME280;70400;50.934;11.590;2023-08-08T01:28:55;99939.31;;;12.32;72.30
80945;BME280;70400;50.934;11.590;2023-08-08T01:29:46;99931.91;;;12.18;71.91
80945;BME280;70400;50.934;11.590;2023-08-08T01:30:37;99935.50;;;12.09;72.30
80945;BME280;70400;50.934;11.590;2023-08-08T01:31:28;99933.69;;;12.09;73.65
80945;BME280;70400;50.934;11.590;2023-08-08T01:32:19;99941.00;;;12.15;73.96
80945;BME280;70400;50.934;11.590;2023-08-08T01:33:10;99934.25;;;12.21;73.90
80945;BME280;70400;50.934;11.590;2023-08-08T01:34:01;99939.16;;;12.16;72.46
80945;BME280;70400;50.934;11.590;2023-08-08T01:34:52;99939.81;;;12.10;73.39
80945;BME280;70400;50.934;11.590;2023-08-08T01:35:46;99933.91;;;11.98;72.70
80945;BME280;70400;50.934;11.590;2023-08-08T01:36:57;99930.81;;;12.03;73.18
80945;BME280;70400;50.934;11.590;2023-08-08T01:37:52;99929.25;;;11.92;72.68
80945;BME280;70400;50.934;11.590;2023-08-08T01:38:46;99934.47;;;12.02;73.56
80945;BME280;70400;50.934;11.590;2023-08-08T01:39:40;99933.91;;;11.98;74.08
80945;BME280;70400;50.934;11.590;2023-08-08T01:40:31;99927.75;;;11.89;72.50
80945;BME280;70400;50.934;11.590;2023-08-08T01:41:23;99931.91;;;11.92;72.68
80945;BME280;70400;50.934;11.590;2023-08-08T01:42:18;99937.41;;;11.99;72.93
80945;BME280;70400;50.934;11.590;2023-08-08T01:43:10;99928.41;;;12.09;73.74
80945;BME280;70400;50.934;11.590;2023-08-08T01:44:01;99931.81;;;12.02;73.24
80945;BME280;70400;50.934;11.590;2023-08-08T01:44:54;99925.22;;;12.06;73.48
80945;BME280;70400;50.934;11.590;2023-08-08T01:45:45;99929.53;;;12.07;74.22
80945;BME280;70400;50.934;11.590;2023-08-08T01:46:37;99922.38;;;11.99;73.11
80945;BME280;70400;50.934;11.590;2023-08-08T01:47:29;99928.81;;;11.97;73.41
80945;BME280;70400;50.934;11.590;2023-08-08T01:48:20;99926.53;;;12.02;74.24
80945;BME280;70400;50.934;11.590;2023-08-08T01:49:12;99921.00;;;11.95;73.17
80945;BME280;70400;50.934;11.590;2023-08-08T01:50:03;99923.16;;;11.91;73.69
80945;BME280;70400;50.934;11.590;2023-08-08T01:50:55;99926.47;;;11.93;73.26
80945;BME280;70400;50.934;11.590;2023-08-08T01:51:46;99918.97;;;12.07;73.24
80945;BME280;70400;50.934;11.590;2023-08-08T01:52:39;99922.81;;;12.12;72.50
80945;BME280;70400;50.934;11.590;2023-08-08T01:53:30;99924.56;;;12.04;72.41
80945;BME280;70400;50.934;11.590;2023-08-08T01:54:21;99923.06;;;12.01;72.65
80945;BME280;70400;50.934;11.590;2023-08-08T01:55:13;99925.53;;;12.03;74.00
80945;BME280;70400;50.934;11.590;2023-08-08T01:56:04;99919.88;;;11.98;72.97
80945;BME280;70400;50.934;11.590;2023-08-08T01:56:55;99916.78;;;12.02;73.56
80945;BME280;70400;50.934;11.590;2023-08-08T01:57:46;99922.44;;;12.07;72.86
80945;BME280;70400;50.934;11.590;2023-08-08T01:58:37;99919.66;;;12.09;73.30
80945;BME280;70400;50.934;11.590;2023-08-08T01:59:27;99922.84;;;11.94;73.24
80945;BME280;70400;50.934;11.590;2023-08-08T02:00:19;99917.03;;;11.91;73.72
80945;BME280;70400;50.934;11.590;2023-08-08T02:01:10;99916.91;;;11.83;73.61
80945;BME280;70400;50.934;11.590;2023-08-08T02:02:00;99921.25;;;11.84;74.00
80945;BME280;70400;50.934;11.590;2023-08-08T02:02:52;99915.78;;;11.85;75.25
80945;BME280;70400;50.934;11.590;2023-08-08T02:03:43;99909.94;;;11.91;73.95
80945;BME280;70400;50.934;11.590;2023-08-08T02:04:36;99911.44;;;11.76;73.93
80945;BME280;70400;50.934;11.590;2023-08-08T02:05:27;99906.84;;;11.78;74.42
80945;BME280;70400;50.934;11.590;2023-08-08T02:06:18;99904.97;;;11.88;74.41
80945;BME280;70400;50.934;11.590;2023-08-08T02:07:09;99903.88;;;11.81;74.62
80945;BME280;70400;50.934;11.590;2023-08-08T02:08:00;99908.72;;;11.86;74.17
80945;BME280;70400;50.934;11.590;2023-08-08T02:08:53;99901.06;;;11.83;74.78
80945;BME280;70400;50.934;11.590;2023-08-08T02:09:44;99910.13;;;11.80;74.66
80945;BME280;70400;50.934;11.590;2023-08-08T02:10:36;99910.50;;;11.85;75.07
80945;BME280;70400;50.934;11.590;2023-08-08T02:11:27;99905.97;;;11.78;74.63
80945;BME280;70400;50.934;11.590;2023-08-08T02:12:18;99899.50;;;11.72;74.73
80945;BME280;70400;50.934;11.590;2023-08-08T02:13:08;99900.50;;;11.71;74.38
80945;BME280;70400;50.934;11.590;2023-08-08T02:14:00;99905.47;;;11.74;74.69
80945;BME280;70400;50.934;11.590;2023-08-08T02:14:51;99902.00;;;11.73;74.78
80945;BME280;70400;50.934;11.590;2023-08-08T02:15:42;99902.88;;;11.82;74.85
80945;BME280;70400;50.934;11.590;2023-08-08T02:16:32;99907.03;;;11.85;74.98
80945;BME280;70400;50.934;11.590;2023-08-08T02:17:24;99908.63;;;11.78;74.84
80945;BME280;70400;50.934;11.590;2023-08-08T02:18:15;99908.16;;;11.82;75.96
80945;BME280;70400;50.934;11.590;2023-08-08T02:19:06;99907.28;;;11.91;75.82
80945;BME280;70400;50.934;11.590;2023-08-08T02:19:57;99906.28;;;11.92;74.30
80945;BME280;70400;50.934;11.590;2023-08-08T02:20:48;99900.41;;;11.81;74.19
80945;BME280;70400;50.934;11.590;2023-08-08T02:21:39;99906.47;;;11.73;74.57
80945;BME280;70400;50.934;11.590;2023-08-08T02:22:30;99906.75;;;11.70;74.78
80945;BME280;70400;50.934;11.590;2023-08-08T02:23:21;99909.88;;;11.65;75.30
80945;BME280;70400;50.934;11.590;2023-08-08T02:24:12;99903.72;;;11.65;74.72
80945;BME280;70400;50.934;11.590;2023-08-08T02:25:03;99903.06;;;11.63;75.51
80945;BME280;70400;50.934;11.590;2023-08-08T02:25:54;99906.84;;;11.78;75.69
80945;BME280;70400;50.934;11.590;2023-08-08T02:26:45;99908.72;;;11.68;74.98
80945;BME280;70400;50.934;11.590;2023-08-08T02:27:36;99905.91;;;11.69;74.44
80945;BME280;70400;50.934;11.590;2023-08-08T02:28:27;99899.72;;;11.79;75.17
80945;BME280;70400;50.934;11.590;2023-08-08T02:29:17;99898.22;;;11.76;74.91
80945;BME280;70400;50.934;11.590;2023-08-08T02:30:09;99899.00;;;11.68;75.33
80945;BME280;70400;50.934;11.590;2023-08-08T02:31:00;99892.88;;;11.68;75.67
80945;BME280;70400;50.934;11.590;2023-08-08T02:31:51;99889.56;;;11.66;75.34
80945;BME280;70400;50.934;11.590;2023-08-08T02:32:42;99891.53;;;11.64;75.29
80945;BME280;70400;50.934;11.590;2023-08-08T02:33:33;99889.84;;;11.81;75.18
80945;BME280;70400;50.934;11.590;2023-08-08T02:34:26;99894.13;;;11.82;74.50
80945;BME280;70400;50.934;11.590;2023-08-08T02:35:19;99890.91;;;11.88;75.01
80945;BME280;70400;50.934;11.590;2023-08-08T02:36:10;99884.25;;;12.02;75.23
80945;BME280;70400;50.934;11.590;2023-08-08T02:37:02;99886.44;;;12.06;74.18
80945;BME280;70400;50.934;11.590;2023-08-08T02:37:52;99888.06;;;12.07;73.60
80945;BME280;70400;50.934;11.590;2023-08-08T02:38:44;99884.97;;;12.12;73.61
80945;BME280;70400;50.934;11.590;2023-08-08T02:39:35;99884.28;;;12.36;74.27
80945;BME280;70400;50.934;11.590;2023-08-08T02:40:25;99890.28;;;12.46;72.93
80945;BME280;70400;50.934;11.590;2023-08-08T02:41:17;99892.38;;;12.34;72.47
80945;BME280;70400;50.934;11.590;2023-08-08T02:42:08;99889.53;;;12.28;72.68
80945;BME280;70400;50.934;11.590;2023-08-08T02:42:59;99889.19;;;12.57;73.55
80945;BME280;70400;50.934;11.590;2023-08-08T02:43:50;99885.16;;;12.45;72.28
80945;BME280;70400;50.934;11.590;2023-08-08T02:44:42;99887.16;;;12.51;73.05
80945;BME280;70400;50.934;11.590;2023-08-08T02:45:33;99881.91;;;12.59;73.45
80945;BME280;70400;50.934;11.590;2023-08-08T02:46:24;99892.19;;;12.62;72.15
80945;BME280;70400;50.934;11.590;2023-08-08T02:47:15;99885.19;;;12.53;72.15
80945;BME280;70400;50.934;11.590;2023-08-08T02:48:06;99888.50;;;12.55;73.43
80945;BME280;70400;50.934;11.590;2023-08-08T02:48:57;99878.78;;;12.64;72.53
80945;BME280;70400;50.934;11.590;2023-08-08T02:49:48;99882.13;;;12.74;72.19
80945;BME280;70400;50.934;11.590;2023-08-08T02:50:39;99874.53;;;12.71;71.58
80945;BME280;70400;50.934;11.590;2023-08-08T02:51:30;99881.28;;;12.65;71.62
80945;BME280;70400;50.934;11.590;2023-08-08T02:52:21;99878.31;;;12.68;72.45
80945;BME280;70400;50.934;11.590;2023-08-08T02:53:12;99876.00;;;12.65;71.50
80945;BME280;70400;50.934;11.590;2023-08-08T02:54:07;99876.50;;;12.77;71.59
80945;BME280;70400;50.934;11.590;2023-08-08T02:55:00;99881.63;;;12.70;72.08
80945;BME280;70400;50.934;11.590;2023-08-08T02:55:53;99878.81;;;12.72;71.94
80945;BME280;70400;50.934;11.590;2023-08-08T02:56:43;99881.66;;;12.78;71.53
80945;BME280;70400;50.934;11.590;2023-08-08T02:57:35;99880.50;;;12.73;71.74
80945;BME280;70400;50.934;11.590;2023-08-08T02:58:26;99878.34;;;12.85;71.57
80945;BME280;70400;50.934;11.590;2023-08-08T02:59:18;99883.31;;;12.79;71.11
80945;BME280;70400;50.934;11.590;2023-08-08T03:00:09;99882.31;;;12.72;71.44
80945;BME280;70400;50.934;11.590;2023-08-08T03:01:07;99880.47;;;12.65;71.76
80945;BME280;70400;50.934;11.590;2023-08-08T03:02:00;99886.91;;;12.62;71.83
80945;BME280;70400;50.934;11.590;2023-08-08T03:02:51;99884.91;;;12.64;72.21
80945;BME280;70400;50.934;11.590;2023-08-08T03:03:42;99879.59;;;12.64;72.38
80945;BME280;70400;50.934;11.590;2023-08-08T03:04:33;99885.25;;;12.69;72.04
80945;BME280;70400;50.934;11.590;2023-08-08T03:05:23;99881.91;;;12.59;72.52
80945;BME280;70400;50.934;11.590;2023-08-08T03:06:14;99883.91;;;12.57;72.34
80945;BME280;70400;50.934;11.590;2023-08-08T03:07:05;99884.97;;;12.46;72.72
80945;BME280;70400;50.934;11.590;2023-08-08T03:07:58;99881.38;;;12.47;72.79
80945;BME280;70400;50.934;11.590;2023-08-08T03:08:50;99882.47;;;12.36;72.54
80945;BME280;70400;50.934;11.590;2023-08-08T03:09:41;99879.69;;;12.46;73.23
80945;BME280;70400;50.934;11.590;2023-08-08T03:10:37;99880.69;;;12.45;73.12
80945;BME280;70400;50.934;11.590;2023-08-08T03:11:28;99880.19;;;12.42;72.86
80945;BME280;70400;50.934;11.590;2023-08-08T03:12:19;99877.72;;;12.48;73.24
80945;BME280;70400;50.934;11.590;2023-08-08T03:13:10;99877.72;;;12.48;73.23
80945;BME280;70400;50.934;11.590;2023-08-08T03:14:02;99875.91;;;12.49;73.04
80945;BME280;70400;50.934;11.590;2023-08-08T03:14:53;99883.84;;;12.49;73.00
80945;BME280;70400;50.934;11.590;2023-08-08T03:15:45;99867.06;;;12.32;72.80
80945;BME280;70400;50.934;11.590;2023-08-08T03:16:36;99876.25;;;12.54;73.28
80945;BME280;70400;50.934;11.590;2023-08-08T03:17:27;99876.13;;;12.55;72.93
80945;BME280;70400;50.934;11.590;2023-08-08T03:18:19;99875.56;;;12.44;72.48
80945;BME280;70400;50.934;11.590;2023-08-08T03:19:10;99868.25;;;12.37;72.95
80945;BME280;70400;50.934;11.590;2023-08-08T03:20:02;99875.50;;;12.35;72.59
80945;BME280;70400;50.934;11.590;2023-08-08T03:20:54;99867.44;;;12.37;73.46
80945;BME280;70400;50.934;11.590;2023-08-08T03:21:47;99875.00;;;12.32;73.21
80945;BME280;70400;50.934;11.590;2023-08-08T03:22:37;99867.88;;;12.24;73.93
80945;BME280;70400;50.934;11.590;2023-08-08T03:23:29;99875.84;;;12.32;74.09
80945;BME280;70400;50.934;11.590;2023-08-08T03:24:20;99870.59;;;12.14;73.86
80945;BME280;70400;50.934;11.590;2023-08-08T03:25:11;99871.22;;;12.08;74.27
80945;BME280;70400;50.934;11.590;2023-08-08T03:26:03;99875.31;;;12.03;74.91
80945;BME280;70400;50.934;11.590;2023-08-08T03:26:54;99875.13;;;11.96;74.71
80945;BME280;70400;50.934;11.590;2023-08-08T03:27:45;99867.06;;;12.06;74.80
80945;BME280;70400;50.934;11.590;2023-08-08T03:28:37;99863.09;;;12.02;74.62
80945;BME280;70400;50.934;11.590;2023-08-08T03:29:28;99865.56;;;12.03;74.44
80945;BME280;70400;50.934;11.590;2023-08-08T03:30:21;99875.63;;;12.00;75.06
80945;BME280;70400;50.934;11.590;2023-08-08T03:31:12;99870.97;;;11.93;74.92
80945;BME280;70400;50.934;11.590;2023-08-08T03:32:05;99871.72;;;12.04;75.25
80945;BME280;70400;50.934;11.590;2023-08-08T03:32:56;99880.09;;;11.99;75.25
80945;BME280;70400;50.934;11.590;2023-08-08T03:33:47;99868.63;;;11.90;75.10
80945;BME280;70400;50.934;11.590;2023-08-08T03:34:38;99871.03;;;11.84;75.20
80945;BME280;70400;50.934;11.590;2023-08-08T03:35:30;99879.28;;;11.81;75.09
80945;BME280;70400;50.934;11.590;2023-08-08T03:36:21;99877.53;;;11.89;75.22
80945;BME280;70400;50.934;11.590;2023-08-08T03:37:12;99884.34;;;11.92;75.30
80945;BME280;70400;50.934;11.590;2023-08-08T03:38:03;99867.84;;;11.98;75.78
80945;BME280;70400;50.934;11.590;2023-08-08T03:38:54;99873.44;;;11.95;75.34
80945;BME280;70400;50.934;11.590;2023-08-08T03:39:45;99875.63;;;12.00;75.47
80945;BME280;70400;50.934;11.590;2023-08-08T03:40:36;99873.13;;;11.98;74.92
80945;BME280;70400;50.934;11.590;2023-08-08T03:41:27;99878.28;;;12.00;75.45
80945;BME280;70400;50.934;11.590;2023-08-08T03:42:19;99874.94;;;11.98;75.25
80945;BME280;70400;50.934;11.590;2023-08-08T03:43:10;99873.09;;;11.90;74.66
80945;BME280;70400;50.934;11.590;2023-08-08T03:44:01;99882.88;;;11.98;75.51
80945;BME280;70400;50.934;11.590;2023-08-08T03:44:53;99875.84;;;12.06;75.93
80945;BME280;70400;50.934;11.590;2023-08-08T03:45:44;99877.00;;;12.04;76.05
80945;BME280;70400;50.934;11.590;2023-08-08T03:46:36;99878.78;;;12.03;74.50
80945;BME280;70400;50.934;11.590;2023-08-08T03:47:27;99878.19;;;12.09;74.99
80945;BME280;70400;50.934;11.590;2023-08-08T03:48:18;99876.63;;;12.25;75.25
80945;BME280;70400;50.934;11.590;2023-08-08T03:49:09;99880.41;;;12.22;74.04
80945;BME280;70400;50.934;11.590;2023-08-08T03:50:00;99880.53;;;12.21;74.34
80945;BME280;70400;50.934;11.590;2023-08-08T03:50:51;99885.06;;;12.28;74.47
80945;BME280;70400;50.934;11.590;2023-08-08T03:51:42;99880.66;;;12.37;74.83
80945;BME280;70400;50.934;11.590;2023-08-08T03:52:33;99884.56;;;12.25;74.44
80945;BME280;70400;50.934;11.590;2023-08-08T03:53:26;99876.25;;;12.20;74.89
80945;BME280;70400;50.934;11.590;2023-08-08T03:54:18;99883.28;;;12.11;75.11
80945;BME280;70400;50.934;11.590;2023-08-08T03:55:09;99883.59;;;12.08;75.46
80945;BME280;70400;50.934;11.590;2023-08-08T03:56:01;99876.88;;;12.13;75.77
80945;BME280;70400;50.934;11.590;2023-08-08T03:56:52;99880.72;;;12.19;75.83
80945;BME280;70400;50.934;11.590;2023-08-08T03:57:44;99886.28;;;12.16;75.64
80945;BME280;70400;50.934;11.590;2023-08-08T03:58:36;99872.16;;;12.25;76.08
80945;BME280;70400;50.934;11.590;2023-08-08T03:59:29;99875.13;;;12.22;75.21
80945;BME280;70400;50.934;11.590;2023-08-08T04:00:20;99883.50;;;12.18;75.01
80945;BME280;70400;50.934;11.590;2023-08-08T04:01:11;99877.63;;;12.24;74.46
80945;BME280;70400;50.934;11.590;2023-08-08T04:02:03;99869.16;;;12.20;74.11
80945;BME280;70400;50.934;11.590;2023-08-08T04:02:56;99878.13;;;12.27;74.91
80945;BME280;70400;50.934;11.590;2023-08-08T04:03:49;99873.19;;;12.32;74.75
80945;BME280;70400;50.934;11.590;2023-08-08T04:04:41;99869.63;;;12.42;75.00
80945;BME280;70400;50.934;11.590;2023-08-08T04:05:31;99880.19;;;12.42;73.85
80945;BME280;70400;50.934;11.590;2023-08-08T04:06:22;99881.41;;;12.55;73.62
80945;BME280;70400;50.934;11.590;2023-08-08T04:07:13;99871.06;;;12.70;73.95
80945;BME280;70400;50.934;11.590;2023-08-08T04:08:04;99872.19;;;12.68;73.16
80945;BME280;70400;50.934;11.590;2023-08-08T04:08:55;99874.84;;;12.68;73.31
80945;BME280;70400;50.934;11.590;2023-08-08T04:09:45;99872.88;;;12.70;72.67
80945;BME280;70400;50.934;11.590;2023-08-08T04:10:36;99881.31;;;12.73;72.29
80945;BME280;70400;50.934;11.590;2023-08-08T04:11:27;99885.31;;;12.77;71.88
80945;BME280;70400;50.934;11.590;2023-08-08T04:12:18;99882.47;;;12.79;71.54
80945;BME280;70400;50.934;11.590;2023-08-08T04:13:10;99883.28;;;12.71;72.32
80945;BME280;70400;50.934;11.590;2023-08-08T04:14:02;99879.31;;;12.67;72.90
80945;BME280;70400;50.934;11.590;2023-08-08T04:14:52;99876.22;;;12.80;73.18
80945;BME280;70400;50.934;11.590;2023-08-08T04:15:44;99883.50;;;12.86;72.81
80945;BME280;70400;50.934;11.590;2023-08-08T04:16:36;99876.41;;;12.95;72.31
80945;BME280;70400;50.934;11.590;2023-08-08T04:17:27;99878.22;;;12.86;70.96
80945;BME280;70400;50.934;11.590;2023-08-08T04:18:18;99883.03;;;12.91;71.27
80945;BME280;70400;50.934;11.590;2023-08-08T04:19:09;99874.44;;;12.97;71.95
80945;BME280;70400;50.934;11.590;2023-08-08T04:19:59;99871.44;;;12.92;71.20
80945;BME280;70400;50.934;11.590;2023-08-08T04:20:50;99886.00;;;12.88;71.29
80945;BME280;70400;50.934;11.590;2023-08-08T04:21:41;99880.19;;;12.84;71.24
80945;BME280;70400;50.934;11.590;2023-08-08T04:22:32;99875.22;;;12.81;71.34
80945;BME280;70400;50.934;11.590;2023-08-08T04:23:23;99876.28;;;13.04;72.29
80945;BME280;70400;50.934;11.590;2023-08-08T04:24:16;99878.44;;;13.09;71.11
80945;BME280;70400;50.934;11.590;2023-08-08T04:25:07;99871.81;;;13.05;70.55
80945;BME280;70400;50.934;11.590;2023-08-08T04:25:58;99865.53;;;13.06;70.73
80945;BME280;70400;50.934;11.590;2023-08-08T04:26:49;99874.34;;;13.23;70.56
80945;BME280;70400;50.934;11.590;2023-08-08T04:27:40;99873.47;;;13.06;70.05
80945;BME280;70400;50.934;11.590;2023-08-08T04:28:31;99870.00;;;13.06;70.87
80945;BME280;70400;50.934;11.590;2023-08-08T04:29:22;99862.69;;;13.08;70.19
80945;BME280;70400;50.934;11.590;2023-08-08T04:30:13;99869.19;;;13.13;71.34
80945;BME280;70400;50.934;11.590;2023-08-08T04:31:04;99873.50;;;13.22;70.38
80945;BME280;70400;50.934;11.590;2023-08-08T04:31:54;99871.84;;;13.21;69.62
80945;BME280;70400;50.934;11.590;2023-08-08T04:32:46;99869.25;;;13.30;69.78